Time;durP1;ratioP1;P1;durP2;ratioP2;P2;SDS_P1;SDS_P2;PMS_P1;PMS_P2;Temp;Humidity;BMP_temperature;BMP_pressure;BME280_temperature;BME280_humidity;BME280_pressure;Samples;Min_cycle;Max_cycle;Signal;HPM_P1;HPM_P2
2023/08/04 00:01:21;;;;;;;17.08;6.15;;;15.90;99.90;;;;;;5032402;28;20546;-64
2023/08/04 00:03:47;;;;;;;20.20;5.93;;;15.90;99.90;;;;;;5035847;28;20504;-65
2023/08/04 00:06:12;;;;;;;18.77;6.78;;;16.00;99.90;;;;;;5034710;28;20108;-64
2023/08/04 00:08:38;;;;;;;31.75;7.32;;;15.90;99.90;;;;;;5035695;28;20086;-65
2023/08/04 00:11:04;;;;;;;13.45;5.95;;;15.90;99.90;;;;;;5034552;28;20053;-63
2023/08/04 00:13:33;;;;;;;19.33;6.75;;;15.90;99.90;;;;;;5038770;28;20021;-65
2023/08/04 00:16:08;;;;;;;16.23;6.70;;;15.90;99.90;;;;;;5033258;28;20033;-64
2023/08/04 00:18:34;;;;;;;19.00;4.85;;;15.90;99.90;;;;;;5032669;28;20565;-65
2023/08/04 00:21:00;;;;;;;14.65;5.10;;;15.90;99.90;;;;;;5033061;28;20100;-64
2023/08/04 00:23:26;;;;;;;20.45;6.18;;;15.90;99.90;;;;;;5040211;28;20036;-65
2023/08/04 00:25:51;;;;;;;16.38;5.80;;;15.90;99.90;;;;;;5030723;28;20032;-63
2023/08/04 00:28:17;;;;;;;18.23;5.68;;;15.80;99.90;;;;;;5036598;28;20036;-63
2023/08/04 00:30:42;;;;;;;14.05;4.75;;;15.70;99.90;;;;;;5034910;28;20025;-64
2023/08/04 00:33:09;;;;;;;12.90;5.47;;;15.80;99.90;;;;;;5034006;28;20024;-65
2023/08/04 00:35:35;;;;;;;17.50;5.60;;;15.80;99.90;;;;;;5033058;28;20069;-65
2023/08/04 00:38:00;;;;;;;16.58;5.07;;;15.80;99.90;;;;;;5031927;28;20061;-65
2023/08/04 00:40:28;;;;;;;11.00;4.47;;;15.80;99.90;;;;;;5032779;28;20024;-64
2023/08/04 00:42:54;;;;;;;14.32;4.15;;;15.70;99.90;;;;;;5030868;28;20053;-65
2023/08/04 00:45:21;;;;;;;17.33;4.82;;;15.60;99.90;;;;;;5032215;28;20065;-64
2023/08/04 00:47:46;;;;;;;11.35;4.35;;;15.60;99.90;;;;;;5035122;28;20131;-64
2023/08/04 00:50:14;;;;;;;10.75;4.00;;;15.60;99.90;;;;;;5031007;28;20917;-65
2023/08/04 00:52:41;;;;;;;18.40;4.80;;;15.60;99.90;;;;;;5036739;28;20519;-64
2023/08/04 00:55:08;;;;;;;12.10;3.78;;;15.60;99.90;;;;;;5029264;28;20501;-63
2023/08/04 00:57:36;;;;;;;22.73;4.03;;;15.60;99.90;;;;;;5031293;28;20501;-64
2023/08/04 01:00:02;;;;;;;15.25;4.35;;;15.60;99.90;;;;;;5030789;28;20096;-63
2023/08/04 01:02:28;;;;;;;8.60;4.07;;;15.50;99.90;;;;;;5031025;28;20037;-64
2023/08/04 01:04:54;;;;;;;11.90;3.80;;;15.50;99.90;;;;;;5031762;28;20435;-64
2023/08/04 01:07:25;;;;;;;11.02;4.38;;;15.60;99.90;;;;;;5030829;28;20463;-64
2023/08/04 01:10:08;;;;;;;10.55;4.05;;;15.60;99.90;;;;;;5032285;28;20034;-65
2023/08/04 01:12:33;;;;;;;12.32;3.72;;;15.60;99.90;;;;;;5028509;28;20018;-64
2023/08/04 01:15:00;;;;;;;16.48;4.53;;;15.60;99.90;;;;;;5035157;28;20091;-64
2023/08/04 01:17:28;;;;;;;16.38;4.30;;;15.60;99.90;;;;;;5027333;28;20112;-62
2023/08/04 01:19:54;;;;;;;13.32;3.70;;;15.50;99.90;;;;;;5028309;28;20037;-64
2023/08/04 01:22:21;;;;;;;11.40;3.53;;;15.60;99.90;;;;;;5033808;28;20100;-64
2023/08/04 01:24:47;;;;;;;10.73;4.45;;;15.50;99.90;;;;;;5030235;28;20112;-65
2023/08/04 01:27:15;;;;;;;15.50;4.03;;;15.40;99.90;;;;;;5031229;28;20064;-65
2023/08/04 01:29:45;;;;;;;15.60;4.45;;;15.30;99.90;;;;;;5035524;28;20432;-64
2023/08/04 01:32:11;;;;;;;15.13;4.57;;;15.20;99.90;;;;;;5032004;28;20036;-64
2023/08/04 01:34:37;;;;;;;18.80;5.40;;;15.30;99.90;;;;;;5034657;28;20108;-63
2023/08/04 01:37:03;;;;;;;10.10;4.43;;;15.20;99.90;;;;;;5030517;28;20591;-63
2023/08/04 01:39:28;;;;;;;17.30;4.22;;;15.30;99.90;;;;;;5037836;28;20083;-64
2023/08/04 01:41:54;;;;;;;21.33;4.88;;;15.30;99.90;;;;;;5033253;28;20032;-64
2023/08/04 01:44:19;;;;;;;20.05;6.05;;;15.20;99.90;;;;;;5031506;28;20036;-64
2023/08/04 01:46:45;;;;;;;23.15;4.72;;;15.10;99.90;;;;;;5034033;28;20633;-64
2023/08/04 01:49:10;;;;;;;12.15;4.30;;;15.00;99.90;;;;;;5032533;28;20038;-64
2023/08/04 01:51:36;;;;;;;18.83;4.43;;;14.90;99.90;;;;;;5034919;28;20074;-64
2023/08/04 01:54:02;;;;;;;17.23;5.60;;;14.90;99.90;;;;;;5029363;28;20466;-64
2023/08/04 01:56:27;;;;;;;14.13;4.72;;;14.90;99.90;;;;;;5035705;28;20116;-63
2023/08/04 01:58:53;;;;;;;12.88;4.38;;;14.90;99.90;;;;;;5028824;28;20048;-63
2023/08/04 02:01:20;;;;;;;16.88;5.10;;;14.90;99.90;;;;;;5026426;28;20527;-65
2023/08/04 02:03:45;;;;;;;15.57;4.63;;;14.80;99.90;;;;;;5028388;28;20024;-63
2023/08/04 02:06:11;;;;;;;13.65;4.75;;;14.80;99.90;;;;;;5031115;28;20112;-64
2023/08/04 02:08:37;;;;;;;10.40;4.63;;;14.80;99.90;;;;;;5030003;28;20120;-64
2023/08/04 02:11:02;;;;;;;14.43;5.03;;;14.90;99.90;;;;;;5032163;28;20059;-64
2023/08/04 02:13:28;;;;;;;10.23;3.55;;;14.90;99.90;;;;;;5030673;28;20040;-64
2023/08/04 02:15:53;;;;;;;21.48;4.72;;;14.90;99.90;;;;;;5032238;28;20037;-65
2023/08/04 02:18:18;;;;;;;15.60;4.80;;;14.90;99.90;;;;;;5038472;28;20021;-64
2023/08/04 02:20:44;;;;;;;24.95;4.93;;;14.90;99.90;;;;;;5030618;28;20439;-64
2023/08/04 02:23:10;;;;;;;18.38;4.30;;;14.90;99.90;;;;;;5029294;28;20722;-64
2023/08/04 02:25:36;;;;;;;12.77;4.63;;;14.90;99.90;;;;;;5034518;28;20044;-64
2023/08/04 02:28:02;;;;;;;9.77;3.55;;;14.80;99.90;;;;;;5030540;28;20397;-65
2023/08/04 02:30:28;;;;;;;18.30;4.63;;;14.80;99.90;;;;;;5031679;28;20048;-65
2023/08/04 02:32:53;;;;;;;13.40;4.30;;;14.80;99.90;;;;;;5032699;28;20026;-64
2023/08/04 02:35:19;;;;;;;13.60;4.50;;;14.80;99.90;;;;;;5028334;28;20040;-65
2023/08/04 02:37:44;;;;;;;13.98;4.75;;;14.80;99.90;;;;;;5029133;28;20122;-64
2023/08/04 02:40:10;;;;;;;15.93;5.00;;;14.80;99.90;;;;;;5027948;28;20053;-64
2023/08/04 02:42:36;;;;;;;17.77;5.03;;;14.80;99.90;;;;;;5038861;28;20037;-63
2023/08/04 02:45:02;;;;;;;9.77;4.32;;;14.70;99.90;;;;;;5027437;28;20510;-65
2023/08/04 02:47:27;;;;;;;19.45;5.25;;;14.70;99.90;;;;;;5028222;28;20030;-64
2023/08/04 02:49:53;;;;;;;18.52;4.85;;;14.70;99.90;;;;;;5033378;28;20030;-64
2023/08/04 02:52:18;;;;;;;17.70;5.63;;;14.70;99.90;;;;;;5035764;28;20511;-65
2023/08/04 02:54:44;;;;;;;25.83;7.75;;;14.70;99.90;;;;;;5030161;28;20104;-63
2023/08/04 02:57:09;;;;;;;11.23;5.30;;;14.70;99.90;;;;;;5029690;28;20047;-63
2023/08/04 02:59:36;;;;;;;24.15;5.97;;;14.70;99.90;;;;;;5029720;28;20032;-64
2023/08/04 03:02:02;;;;;;;14.23;5.95;;;14.70;99.90;;;;;;5026903;28;20013;-63
2023/08/04 03:04:27;;;;;;;16.23;5.60;;;14.70;99.90;;;;;;5033974;28;20028;-65
2023/08/04 03:06:53;;;;;;;14.85;5.32;;;14.70;99.90;;;;;;5039340;28;20041;-64
2023/08/04 03:09:18;;;;;;;11.38;4.97;;;14.70;99.90;;;;;;5027658;28;20104;-65
2023/08/04 03:11:44;;;;;;;18.67;5.22;;;14.50;99.90;;;;;;5032072;28;20069;-65
2023/08/04 03:14:09;;;;;;;18.35;5.18;;;14.60;99.90;;;;;;5028977;28;20116;-63
2023/08/04 03:16:35;;;;;;;15.70;5.50;;;14.60;99.90;;;;;;5030006;28;20071;-65
2023/08/04 03:19:00;;;;;;;20.85;5.95;;;14.50;99.90;;;;;;5032505;28;20041;-64
2023/08/04 03:21:26;;;;;;;26.42;7.05;;;14.40;99.90;;;;;;5030281;28;20037;-64
2023/08/04 03:23:52;;;;;;;13.60;5.47;;;14.40;99.90;;;;;;5030005;28;20083;-64
2023/08/04 03:26:17;;;;;;;23.73;7.32;;;14.40;99.90;;;;;;5029487;28;20033;-65
2023/08/04 03:28:43;;;;;;;19.58;6.93;;;14.40;99.90;;;;;;5030499;28;20397;-64
2023/08/04 03:31:08;;;;;;;10.85;6.20;;;14.50;99.90;;;;;;5044529;28;20143;-63
2023/08/04 03:33:35;;;;;;;24.42;6.80;;;14.50;99.90;;;;;;5030100;28;20105;-64
2023/08/04 03:36:01;;;;;;;22.67;7.80;;;14.50;99.90;;;;;;5026673;28;20030;-64
2023/08/04 03:38:26;;;;;;;16.77;7.15;;;14.60;99.90;;;;;;5031178;28;20404;-63
2023/08/04 03:40:52;;;;;;;26.95;8.35;;;14.60;99.90;;;;;;5028366;28;20030;-63
2023/08/04 03:43:17;;;;;;;21.92;7.57;;;14.60;99.90;;;;;;5025800;28;20030;-64
2023/08/04 03:45:43;;;;;;;22.33;7.78;;;14.60;99.90;;;;;;5029440;28;20055;-63
2023/08/04 03:48:08;;;;;;;18.27;6.55;;;14.70;99.90;;;;;;5030301;28;20091;-65
2023/08/04 03:50:34;;;;;;;18.83;7.03;;;14.70;99.90;;;;;;5027093;28;20567;-63
2023/08/04 03:52:59;;;;;;;31.95;7.65;;;14.70;99.90;;;;;;5034809;28;20017;-65
2023/08/04 03:55:25;;;;;;;24.75;8.48;;;14.70;99.90;;;;;;5028458;28;20029;-64
2023/08/04 03:57:51;;;;;;;22.40;8.07;;;14.70;99.90;;;;;;5039227;28;20074;-65
2023/08/04 04:00:17;;;;;;;31.15;7.25;;;14.60;99.90;;;;;;5024516;28;20101;-65
2023/08/04 04:02:42;;;;;;;24.73;8.00;;;14.70;99.90;;;;;;5030176;28;20549;-64
2023/08/04 04:05:08;;;;;;;33.33;8.50;;;14.60;99.90;;;;;;5028618;28;20029;-64
2023/08/04 04:07:34;;;;;;;32.70;8.18;;;14.60;99.90;;;;;;5035848;28;20028;-64
2023/08/04 04:09:59;;;;;;;28.48;7.55;;;14.60;99.90;;;;;;5035047;28;20025;-66
2023/08/04 04:12:25;;;;;;;27.98;8.55;;;14.60;99.90;;;;;;5041913;28;20597;-64
2023/08/04 04:14:50;;;;;;;27.13;9.10;;;14.70;99.90;;;;;;5034401;28;20037;-65
2023/08/04 04:17:16;;;;;;;19.77;8.75;;;14.80;99.90;;;;;;5037449;28;20029;-65
2023/08/04 04:19:41;;;;;;;25.35;8.50;;;14.80;99.90;;;;;;5034097;28;20017;-64
2023/08/04 04:22:09;;;;;;;28.77;8.35;;;14.80;99.90;;;;;;5037768;28;20397;-64
2023/08/04 04:24:34;;;;;;;19.50;7.68;;;14.80;99.90;;;;;;5031641;28;20067;-64
2023/08/04 04:27:00;;;;;;;20.83;7.90;;;14.90;99.90;;;;;;5031504;28;20063;-65
2023/08/04 04:29:25;;;;;;;29.75;9.38;;;14.90;99.90;;;;;;5033060;28;20729;-64
2023/08/04 04:31:51;;;;;;;17.10;8.50;;;15.00;99.90;;;;;;5032399;28;20502;-62
2023/08/04 04:34:16;;;;;;;21.85;8.65;;;15.00;99.90;;;;;;5035966;28;20030;-64
2023/08/04 04:36:42;;;;;;;31.25;8.88;;;14.90;99.90;;;;;;5030797;28;20033;-62
2023/08/04 04:39:08;;;;;;;23.40;8.55;;;15.00;99.90;;;;;;5030080;28;20025;-63
2023/08/04 04:41:34;;;;;;;23.48;8.85;;;15.00;99.90;;;;;;5031513;28;20013;-63
2023/08/04 04:44:01;;;;;;;24.42;7.93;;;15.10;99.90;;;;;;5034450;28;20552;-63
2023/08/04 04:46:26;;;;;;;20.33;7.70;;;15.10;99.90;;;;;;5029122;28;20072;-64
2023/08/04 04:48:52;;;;;;;15.35;6.95;;;15.10;99.90;;;;;;5036994;28;20065;-63
2023/08/04 04:51:17;;;;;;;22.23;7.50;;;15.20;99.90;;;;;;5030288;28;20037;-62
2023/08/04 04:53:43;;;;;;;23.35;8.13;;;15.20;99.90;;;;;;5032323;28;20038;-63
2023/08/04 04:56:10;;;;;;;31.63;8.57;;;15.20;99.90;;;;;;5031804;28;20043;-64
2023/08/04 04:58:35;;;;;;;24.27;8.45;;;15.20;99.90;;;;;;5034457;28;20029;-62
2023/08/04 05:01:05;;;;;;;21.73;8.52;;;15.20;99.90;;;;;;5032491;28;20021;-63
2023/08/04 05:03:31;;;;;;;14.93;7.13;;;15.20;99.90;;;;;;5035105;28;20109;-64
2023/08/04 05:05:56;;;;;;;30.50;8.30;;;15.30;99.90;;;;;;5028865;28;20029;-62
2023/08/04 05:08:22;;;;;;;24.90;8.02;;;15.30;99.90;;;;;;5035507;28;20029;-62
2023/08/04 05:10:51;;;;;;;16.17;7.47;;;15.40;99.90;;;;;;5033547;28;20029;-63
2023/08/04 05:13:17;;;;;;;24.25;8.45;;;15.50;99.90;;;;;;5030693;28;20037;-63
2023/08/04 05:15:42;;;;;;;18.40;6.43;;;15.40;99.90;;;;;;5029800;28;20026;-64
2023/08/04 05:18:09;;;;;;;19.55;7.20;;;15.50;99.90;;;;;;5031022;28;20133;-63
2023/08/04 05:20:34;;;;;;;32.72;9.25;;;15.50;99.90;;;;;;5032275;28;20104;-62
2023/08/04 05:23:00;;;;;;;27.88;8.25;;;15.50;99.90;;;;;;5034216;28;20111;-62
2023/08/04 05:25:26;;;;;;;23.33;8.32;;;15.60;99.90;;;;;;5030315;28;20087;-63
2023/08/04 05:27:51;;;;;;;38.58;9.25;;;15.60;99.90;;;;;;5039936;28;20439;-62
2023/08/04 05:30:17;;;;;;;17.38;7.43;;;15.60;99.90;;;;;;5030490;28;20029;-56
2023/08/04 05:32:42;;;;;;;25.17;7.47;;;15.60;99.90;;;;;;5030629;28;20056;-61
2023/08/04 05:35:09;;;;;;;20.85;8.18;;;15.60;99.90;;;;;;5031889;28;20041;-61
2023/08/04 05:37:34;;;;;;;16.92;7.72;;;15.70;99.90;;;;;;5030213;28;20032;-60
2023/08/04 05:40:02;;;;;;;29.08;7.95;;;15.70;99.90;;;;;;5033407;28;20025;-60
2023/08/04 05:42:28;;;;;;;31.23;9.10;;;15.70;99.90;;;;;;5030167;28;20025;-58
2023/08/04 05:44:53;;;;;;;16.02;7.53;;;15.70;99.90;;;;;;5032756;28;20021;-61
2023/08/04 05:47:20;;;;;;;27.52;9.02;;;15.70;99.90;;;;;;5031639;28;20370;-57
2023/08/04 05:49:47;;;;;;;21.83;8.15;;;15.70;99.90;;;;;;5040472;28;20104;-56
2023/08/04 05:52:13;;;;;;;17.55;7.60;;;15.80;99.90;;;;;;5028171;28;20045;-59
2023/08/04 05:54:38;;;;;;;26.13;8.63;;;15.80;99.90;;;;;;5032334;28;20032;-60
2023/08/04 05:57:04;;;;;;;24.27;8.27;;;15.70;99.90;;;;;;5031094;28;20560;-62
2023/08/04 05:59:30;;;;;;;25.80;7.93;;;15.70;99.90;;;;;;5033376;28;20025;-62
2023/08/04 06:01:55;;;;;;;25.88;8.93;;;15.70;99.90;;;;;;5029375;28;20029;-62
2023/08/04 06:04:21;;;;;;;18.52;7.90;;;15.70;99.90;;;;;;5034646;28;20026;-62
2023/08/04 06:06:46;;;;;;;20.67;8.88;;;15.80;99.90;;;;;;5033610;28;20029;-60
2023/08/04 06:09:12;;;;;;;24.48;7.93;;;15.80;99.90;;;;;;5038518;28;20033;-62
2023/08/04 06:11:37;;;;;;;17.42;7.72;;;15.80;99.90;;;;;;5030399;28;20082;-62
2023/08/04 06:14:03;;;;;;;28.38;8.68;;;15.90;99.90;;;;;;5033213;28;20029;-61
2023/08/04 06:16:28;;;;;;;30.00;8.75;;;15.90;99.90;;;;;;5032463;28;20045;-60
2023/08/04 06:18:54;;;;;;;17.15;8.65;;;15.90;99.90;;;;;;5032510;28;20029;-62
2023/08/04 06:21:19;;;;;;;23.80;8.15;;;15.90;99.90;;;;;;5032896;28;20017;-61
2023/08/04 06:23:45;;;;;;;22.88;8.38;;;16.00;99.90;;;;;;5038803;28;20040;-61
2023/08/04 06:26:14;;;;;;;23.05;8.23;;;16.00;99.90;;;;;;5034871;28;20120;-60
2023/08/04 06:28:40;;;;;;;21.85;8.63;;;15.90;99.90;;;;;;5033190;28;20036;-57
2023/08/04 06:31:06;;;;;;;20.70;7.68;;;16.00;99.90;;;;;;5029821;28;20116;-58
2023/08/04 06:33:31;;;;;;;26.08;8.05;;;16.00;99.90;;;;;;5030332;28;20101;-60
2023/08/04 06:35:57;;;;;;;29.90;8.38;;;16.10;99.90;;;;;;5033132;28;20053;-58
2023/08/04 06:38:23;;;;;;;34.35;9.00;;;16.10;99.90;;;;;;5032305;28;20495;-57
2023/08/04 06:40:49;;;;;;;19.75;8.25;;;16.20;99.90;;;;;;5025684;28;20486;-60
2023/08/04 06:43:14;;;;;;;33.50;8.45;;;16.10;99.90;;;;;;5036390;28;20131;-60
2023/08/04 06:45:40;;;;;;;22.73;8.88;;;16.20;99.90;;;;;;5035305;28;20060;-61
2023/08/04 06:48:05;;;;;;;24.35;8.15;;;16.20;99.90;;;;;;5036214;28;20071;-61
2023/08/04 06:50:31;;;;;;;25.70;8.00;;;16.30;99.90;;;;;;5037838;28;20071;-57
2023/08/04 06:52:57;;;;;;;24.20;8.23;;;16.30;99.90;;;;;;5030651;28;20037;-58
2023/08/04 06:55:22;;;;;;;25.75;7.68;;;16.30;99.90;;;;;;5033036;28;20025;-59
2023/08/04 06:57:48;;;;;;;28.98;8.27;;;16.40;99.90;;;;;;5037912;28;20014;-57
2023/08/04 07:00:13;;;;;;;20.63;7.55;;;16.50;99.90;;;;;;5031393;28;20033;-56
2023/08/04 07:02:40;;;;;;;26.52;8.32;;;16.50;99.90;;;;;;5028089;28;20162;-59
2023/08/04 07:05:06;;;;;;;22.13;8.13;;;16.60;99.90;;;;;;5030353;28;20014;-54
2023/08/04 07:07:31;;;;;;;22.23;7.70;;;16.60;99.90;;;;;;5039780;28;20036;-60
2023/08/04 07:09:57;;;;;;;20.95;6.95;;;16.60;99.90;;;;;;5033307;28;20053;-57
2023/08/04 07:12:22;;;;;;;25.33;8.35;;;16.70;99.90;;;;;;5049665;28;20021;-61
2023/08/04 07:14:48;;;;;;;21.75;6.93;;;16.60;99.90;;;;;;5030086;28;20034;-59
2023/08/04 07:17:13;;;;;;;21.77;7.50;;;16.60;99.90;;;;;;5025582;28;20489;-62
2023/08/04 07:19:39;;;;;;;24.38;7.30;;;16.70;99.90;;;;;;5030109;28;20033;-60
2023/08/04 07:22:04;;;;;;;23.60;7.93;;;16.70;99.90;;;;;;5035847;28;20036;-59
2023/08/04 07:24:30;;;;;;;24.05;6.88;;;16.80;99.90;;;;;;5033439;28;20026;-60
2023/08/04 07:26:55;;;;;;;21.20;6.95;;;16.80;99.90;;;;;;5032573;28;20029;-61
2023/08/04 07:29:21;;;;;;;26.58;8.02;;;16.80;99.90;;;;;;5026914;28;20536;-58
2023/08/04 07:31:47;;;;;;;24.50;7.50;;;16.80;99.90;;;;;;5026252;28;20501;-58
2023/08/04 07:34:12;;;;;;;27.95;8.90;;;16.80;99.90;;;;;;5028930;28;20033;-60
2023/08/04 07:36:38;;;;;;;27.95;8.77;;;16.80;99.90;;;;;;5025804;28;20084;-58
2023/08/04 07:39:03;;;;;;;26.95;8.80;;;16.80;99.90;;;;;;5025121;28;20022;-55
2023/08/04 07:41:29;;;;;;;21.05;7.93;;;16.90;99.90;;;;;;5029836;28;20143;-55
2023/08/04 07:43:55;;;;;;;15.85;8.18;;;17.00;99.90;;;;;;5029769;28;20041;-58
2023/08/04 07:46:25;;;;;;;26.40;9.68;;;17.00;99.90;;;;;;5029687;28;20026;-55
2023/08/04 07:48:52;;;;;;;30.65;8.95;;;17.20;99.90;;;;;;5033632;28;20431;-56
2023/08/04 07:51:18;;;;;;;25.23;9.20;;;17.30;99.90;;;;;;5028302;28;20028;-57
2023/08/04 07:53:44;;;;;;;22.75;9.35;;;17.20;99.90;;;;;;5033156;28;20021;-58
2023/08/04 07:56:09;;;;;;;18.73;8.70;;;17.30;99.90;;;;;;5031488;28;20029;-59
2023/08/04 07:58:35;;;;;;;26.88;8.85;;;17.40;99.90;;;;;;5038401;28;20029;-59
2023/08/04 08:01:03;;;;;;;19.92;8.70;;;17.60;99.90;;;;;;5036516;28;20029;-58
2023/08/04 08:03:30;;;;;;;21.80;8.98;;;17.60;99.90;;;;;;5035097;28;20496;-59
2023/08/04 08:05:55;;;;;;;25.90;8.18;;;17.50;99.90;;;;;;5035840;28;20041;-59
2023/08/04 08:08:21;;;;;;;20.90;8.88;;;17.60;99.90;;;;;;5031202;28;20927;-58
2023/08/04 08:10:46;;;;;;;18.50;8.20;;;17.60;99.90;;;;;;5031124;28;20460;-61
2023/08/04 08:13:12;;;;;;;21.00;8.07;;;17.60;99.90;;;;;;5035835;28;20036;-60
2023/08/04 08:15:38;;;;;;;18.58;7.05;;;17.60;99.90;;;;;;5029482;28;20033;-57
2023/08/04 08:18:03;;;;;;;16.15;7.07;;;17.60;99.90;;;;;;5031110;28;20079;-58
2023/08/04 08:20:29;;;;;;;19.40;7.07;;;17.60;99.90;;;;;;5045017;28;20048;-59
2023/08/04 08:22:56;;;;;;;20.20;6.07;;;17.70;99.90;;;;;;5033116;28;20060;-59
2023/08/04 08:25:22;;;;;;;19.10;5.50;;;17.80;99.90;;;;;;5031073;28;20018;-58
2023/08/04 08:27:47;;;;;;;17.55;5.80;;;17.80;99.90;;;;;;5031663;28;20400;-59
2023/08/04 08:30:13;;;;;;;18.50;5.72;;;17.90;99.90;;;;;;5025268;28;20041;-60
2023/08/04 08:32:38;;;;;;;16.83;5.05;;;17.70;99.90;;;;;;5026687;28;20359;-60
2023/08/04 08:35:04;;;;;;;15.30;5.03;;;17.80;99.90;;;;;;5031821;28;20242;-58
2023/08/04 08:37:30;;;;;;;14.85;6.00;;;17.80;99.90;;;;;;5030171;28;20034;-59
2023/08/04 08:39:55;;;;;;;19.58;4.85;;;17.80;99.90;;;;;;5031849;28;20080;-59
2023/08/04 08:42:22;;;;;;;18.35;5.47;;;17.80;99.90;;;;;;5037669;28;20029;-60
2023/08/04 08:44:49;;;;;;;7.05;4.28;;;17.80;99.90;;;;;;5037340;28;20017;-59
2023/08/04 08:47:17;;;;;;;11.18;4.78;;;17.80;99.90;;;;;;5031971;28;20440;-58
2023/08/04 08:49:47;;;;;;;17.77;4.72;;;17.90;99.90;;;;;;5039621;28;20104;-58
2023/08/04 08:52:13;;;;;;;19.75;4.65;;;17.90;99.90;;;;;;5033386;28;20137;-59
2023/08/04 08:54:39;;;;;;;15.48;4.95;;;18.00;99.90;;;;;;5033517;28;20100;-57
2023/08/04 08:57:05;;;;;;;19.05;5.53;;;18.10;99.90;;;;;;5035658;28;20025;-60
2023/08/04 08:59:32;;;;;;;21.67;5.63;;;18.10;99.90;;;;;;5032605;28;20032;-60
2023/08/04 09:01:58;;;;;;;12.90;4.50;;;18.20;99.90;;;;;;5028021;28;20493;-54
2023/08/04 09:04:24;;;;;;;11.10;4.82;;;18.00;99.90;;;;;;5034257;28;20033;-59
2023/08/04 09:06:50;;;;;;;13.60;5.20;;;18.00;99.90;;;;;;5035361;28;20030;-58
2023/08/04 09:09:16;;;;;;;12.68;4.50;;;18.00;99.90;;;;;;5035006;28;20104;-57
2023/08/04 09:11:42;;;;;;;15.07;5.07;;;18.00;99.90;;;;;;5034838;28;20032;-58
2023/08/04 09:14:08;;;;;;;14.45;5.00;;;17.90;99.90;;;;;;5040115;28;20037;-59
2023/08/04 09:16:39;;;;;;;14.13;5.43;;;17.90;99.90;;;;;;5034819;28;20029;-60
2023/08/04 09:19:08;;;;;;;14.35;5.28;;;18.00;99.90;;;;;;5034875;28;20512;-58
2023/08/04 09:21:35;;;;;;;11.80;5.63;;;18.00;99.90;;;;;;5039222;28;20053;-59
2023/08/04 09:24:03;;;;;;;17.88;5.88;;;18.00;99.90;;;;;;5032979;28;20022;-58
2023/08/04 09:26:43;;;;;;;12.95;4.80;;;18.10;99.90;;;;;;5028850;28;20053;-58
2023/08/04 09:29:09;;;;;;;12.15;5.50;;;18.10;99.90;;;;;;5034652;28;20108;-59
2023/08/04 09:31:39;;;;;;;16.85;6.05;;;18.10;99.90;;;;;;5026207;28;20109;-59
2023/08/04 09:34:07;;;;;;;12.48;5.93;;;18.00;99.90;;;;;;5026902;28;20134;-60
2023/08/04 09:36:47;;;;;;;12.85;5.38;;;18.00;99.90;;;;;;5033356;28;20044;-60
2023/08/04 09:39:14;;;;;;;15.73;5.70;;;18.10;99.90;;;;;;5026407;28;20042;-58
2023/08/04 09:41:46;;;;;;;17.27;5.53;;;18.10;99.90;;;;;;5037793;28;20397;-60
2023/08/04 09:44:14;;;;;;;14.90;4.93;;;18.00;99.90;;;;;;5035742;28;20034;-60
2023/08/04 09:46:47;;;;;;;15.38;5.40;;;18.00;99.90;;;;;;5031712;28;20036;-60
2023/08/04 09:49:13;;;;;;;8.95;4.90;;;18.00;99.90;;;;;;5031698;28;20052;-58
2023/08/04 09:51:41;;;;;;;13.32;4.90;;;18.00;99.90;;;;;;5029562;28;20021;-59
2023/08/04 09:54:07;;;;;;;13.73;5.25;;;18.10;99.90;;;;;;5030035;28;20025;-56
2023/08/04 09:56:33;;;;;;;13.43;6.07;;;18.10;99.90;;;;;;5035650;28;20501;-57
2023/08/04 09:58:59;;;;;;;9.52;5.00;;;18.10;99.90;;;;;;5033886;28;20549;-59
2023/08/04 10:01:25;;;;;;;20.15;6.70;;;18.00;99.90;;;;;;5030360;28;20116;-54
2023/08/04 10:03:55;;;;;;;12.73;6.45;;;18.00;99.90;;;;;;5031624;28;20389;-56
2023/08/04 10:06:21;;;;;;;12.30;5.97;;;18.00;99.90;;;;;;5032199;28;20108;-57
2023/08/04 10:08:49;;;;;;;11.68;6.60;;;18.00;99.90;;;;;;5033136;28;20104;-58
2023/08/04 10:11:15;;;;;;;19.85;7.32;;;17.90;99.90;;;;;;5028963;28;20025;-57
2023/08/04 10:13:48;;;;;;;14.50;6.93;;;17.80;99.90;;;;;;5034763;28;20115;-58
2023/08/04 10:16:15;;;;;;;11.05;6.68;;;17.90;99.90;;;;;;5029341;28;20501;-58
2023/08/04 10:18:56;;;;;;;12.85;7.03;;;17.90;99.90;;;;;;5030813;28;20021;-59
2023/08/04 10:21:31;;;;;;;17.05;7.85;;;18.00;99.90;;;;;;5030252;28;20037;-58
2023/08/04 10:24:02;;;;;;;16.75;6.30;;;17.90;99.90;;;;;;5030464;28;20017;-58
2023/08/04 10:26:32;;;;;;;12.35;6.45;;;17.90;99.90;;;;;;5030006;28;20501;-59
2023/08/04 10:29:04;;;;;;;11.95;7.05;;;17.90;99.90;;;;;;5027483;28;20167;-60
2023/08/04 10:31:52;;;;;;;14.57;7.20;;;17.90;99.90;;;;;;5031465;28;20052;-58
2023/08/04 10:34:27;;;;;;;11.05;6.43;;;18.00;99.90;;;;;;5029893;28;20039;-58
2023/08/04 10:37:01;;;;;;;14.05;6.38;;;18.10;99.90;;;;;;5034934;28;20489;-58
2023/08/04 10:39:28;;;;;;;;;;;18.20;99.90;;;;;;5025581;28;20030;-59
2023/08/04 10:41:54;;;;;;;9.95;5.07;;;18.10;99.90;;;;;;5029687;28;19912;-59
2023/08/04 10:44:20;;;;;;;13.52;4.60;;;18.30;99.90;;;;;;5045786;28;20405;-57
2023/08/04 10:46:47;;;;;;;11.48;4.40;;;18.40;99.90;;;;;;5029956;28;20033;-58
2023/08/04 10:49:13;;;;;;;19.63;5.28;;;18.40;99.90;;;;;;5028712;28;20042;-59
2023/08/04 10:51:40;;;;;;;11.68;4.78;;;18.50;99.90;;;;;;5023943;28;20109;-60
2023/08/04 10:54:06;;;;;;;11.43;4.13;;;18.80;99.90;;;;;;5028398;28;20037;-59
2023/08/04 10:56:36;;;;;;;10.90;3.90;;;18.90;99.90;;;;;;5027832;28;20033;-60
2023/08/04 10:59:01;;;;;;;6.43;3.38;;;19.10;99.90;;;;;;5028371;28;20084;-58
2023/08/04 11:01:28;;;;;;;13.95;4.53;;;19.30;99.90;;;;;;5028683;28;20029;-62
2023/08/04 11:03:54;;;;;;;9.98;3.97;;;19.20;99.90;;;;;;5029941;28;20016;-59
2023/08/04 11:06:19;;;;;;;12.32;4.15;;;19.20;99.90;;;;;;5029092;28;20405;-61
2023/08/04 11:08:45;;;;;;;9.00;3.35;;;19.50;99.90;;;;;;5031183;28;20044;-56
2023/08/04 11:11:12;;;;;;;8.55;4.10;;;19.40;99.90;;;;;;5031191;28;20049;-59
2023/08/04 11:13:39;;;;;;;9.70;3.70;;;19.60;99.90;;;;;;5039287;28;20021;-61
2023/08/04 11:16:04;;;;;;;9.10;3.78;;;19.60;99.90;;;;;;5029006;28;20397;-59
2023/08/04 11:18:31;;;;;;;14.88;3.30;;;19.80;99.90;;;;;;5029687;28;20029;-60
2023/08/04 11:21:02;;;;;;;7.72;3.05;;;20.00;99.90;;;;;;5027604;28;20032;-61
2023/08/04 11:23:30;;;;;;;7.70;3.88;;;20.10;99.90;;;;;;5031415;28;20029;-61
2023/08/04 11:25:57;;;;;;;8.55;3.50;;;20.30;99.90;;;;;;5028005;28;20017;-60
2023/08/04 11:28:23;;;;;;;6.72;3.22;;;20.10;99.90;;;;;;5032091;28;20031;-60
2023/08/04 11:30:49;;;;;;;8.95;3.20;;;19.80;99.90;;;;;;5028378;28;20056;-61
2023/08/04 11:33:18;;;;;;;8.38;3.38;;;19.80;99.90;;;;;;5029418;28;20084;-58
2023/08/04 11:35:45;;;;;;;13.77;4.03;;;19.90;99.90;;;;;;5029232;28;20036;-59
2023/08/04 11:38:10;;;;;;;10.80;3.33;;;19.90;99.90;;;;;;5032263;28;20497;-60
2023/08/04 11:40:37;;;;;;;6.13;3.15;;;19.70;99.90;;;;;;5031157;28;20108;-61
2023/08/04 11:43:04;;;;;;;10.93;3.08;;;19.70;99.90;;;;;;5033774;28;20037;-60
2023/08/04 11:45:31;;;;;;;3.80;2.55;;;19.70;99.90;;;;;;5031503;28;20079;-58
2023/08/04 11:47:58;;;;;;;10.23;2.70;;;19.70;99.90;;;;;;5028616;28;20262;-60
2023/08/04 11:50:25;;;;;;;7.72;2.72;;;19.80;99.90;;;;;;5029424;28;20078;-57
2023/08/04 11:52:51;;;;;;;2.92;2.30;;;19.80;99.90;;;;;;5029872;28;20156;-56
2023/08/04 11:55:17;;;;;;;6.30;2.22;;;19.90;99.90;;;;;;5028645;28;20060;-53
2023/08/04 11:57:50;;;;;;;3.17;2.08;;;19.90;99.90;;;;;;5034399;28;20022;-60
2023/08/04 12:00:16;;;;;;;8.52;2.47;;;20.10;99.90;;;;;;5026920;28;20499;-59
2023/08/04 12:02:58;;;;;;;7.72;2.90;;;20.20;99.90;;;;;;5028820;28;20409;-59
2023/08/04 12:05:29;;;;;;;5.72;2.53;;;20.30;99.90;;;;;;5027676;28;20033;-61
2023/08/04 12:07:56;;;;;;;7.38;2.03;;;20.70;99.90;;;;;;5026387;28;20029;-57
2023/08/04 12:10:23;;;;;;;13.02;2.80;;;21.20;99.90;;;;;;5027287;28;20432;-61
2023/08/04 12:12:49;;;;;;;2.25;1.80;;;21.80;99.90;;;;;;5029556;28;20164;-59
2023/08/04 12:15:15;;;;;;;2.83;1.75;;;22.20;99.90;;;;;;5028287;28;20128;-60
2023/08/04 12:17:42;;;;;;;3.75;2.17;;;22.20;99.90;;;;;;5025255;28;20498;-60
2023/08/04 12:20:12;;;;;;;6.55;2.25;;;22.10;99.90;;;;;;5024348;28;20064;-60
2023/08/04 12:22:40;;;;;;;7.82;2.40;;;22.30;99.90;;;;;;5030574;28;20160;-61
2023/08/04 12:25:07;;;;;;;5.35;2.13;;;22.10;99.90;;;;;;5027402;28;20021;-62
2023/08/04 12:27:33;;;;;;;4.93;2.30;;;22.00;99.90;;;;;;5023872;28;20026;-57
2023/08/04 12:29:59;;;;;;;8.18;2.45;;;21.70;99.90;;;;;;5029882;28;20099;-57
2023/08/04 12:32:24;;;;;;;7.07;2.53;;;21.70;99.90;;;;;;5031829;28;20485;-61
2023/08/04 12:34:50;;;;;;;6.05;2.63;;;21.50;99.90;;;;;;5032317;28;20029;-61